Home > Products > Valid Products > MTR

000
SAUS43 KUNR 242257
MTRD07
METAR KD07 242256Z AUTO 28020G27KT 16/M06 A2975 RMK AO1 PK WND
32035/2219 SLP080 T01611056





000
SAUS43 KUNR 242257
MTR2WX
METAR K2WX 242256Z AUTO 30022G25KT 16/M06 A2970 RMK AO1 PK WND
29030/2205 SLP063 T01561056





000
SAUS43 KUNR 242157
MTRD07
METAR KD07 242156Z AUTO 29021G27KT 16/M06 A2975 RMK AO1 PK WND
30032/2103 SLP081 T01561056





000
SAUS43 KUNR 242157
MTR2WX
METAR K2WX 242156Z AUTO 28016G28KT 16/M06 A2970 RMK AO1 PK WND
28038/2132 SLP065 T01561056





000
SAUS43 KUNR 242057
MTR2WX
METAR K2WX 242056Z AUTO 28023G38KT 16/M06 A2972 RMK AO1 PK WND
28039/2024 SLP067 T01611056 56012





000
SAUS43 KUNR 242057
MTRD07
METAR KD07 242056Z AUTO 31021G29KT 16/M06 A2976 RMK AO1 PK WND
29032/1957 SLP080 T01611056 56012





000
SAUS43 KUNR 241957
MTR2WX
METAR K2WX 241956Z AUTO 29028G33KT 14/M06 A2972 RMK AO1 PK WND
28039/1923 SLP075 T01391056





000
SAUS43 KUNR 241957
MTRD07
METAR KD07 241956Z AUTO 30021G29KT 15/M06 A2976 RMK AO1 PK WND
30031/1944 SLP084 T01501061





000
SAUS43 KUNR 241857
MTR2WX
METAR K2WX 241856Z AUTO 29028G35KT 14/M04 A2974 RMK AO1 PK WND
30035/1846 SLP079 T01441044





000
SAUS43 KUNR 241857
MTRD07
METAR KD07 241856Z AUTO 29022G32KT 15/M04 A2978 RMK AO1 PK WND
30034/1758 SLP089 T01501044





000
SAUS43 KUNR 241758
MTR2WX
METAR K2WX 241756Z AUTO 30020G31KT 13/M05 A2976 RMK AO1 PK WND
29032/1708 SLP083 T01281050 10139 20000 58005





000
SAUS43 KUNR 241757
MTRD07
METAR KD07 241756Z AUTO 28026G33KT 14/M03 A2980 RMK AO1 PK WND
27040/1721 SLP096 T01441028 10144 20028 58007





000
SAUS43 KUNR 241657
MTR2WX
METAR K2WX 241656Z AUTO 29017G27KT 12/M04 A2976 RMK AO1 PK WND
29028/1601 SLP086 T01171039





000
SAUS43 KUNR 241657
MTRD07
METAR KD07 241656Z AUTO 28030G38KT 13/M01 A2982 RMK AO1 PK WND
29038/1648 SLP103 T01331011





000
SAUS43 KUNR 241558
MTR2WX
METAR K2WX 241556Z AUTO 28020KT 11/M03 A2977 RMK AO1 PK WND
28037/1546 SLP087 T01111033





000
SAUS43 KUNR 241557
MTRD07
METAR KD07 241556Z AUTO 30022G29KT 12/M01 A2982 RMK AO1 PK WND
30033/1545 SLP107 T01221011





000
SAUS43 KUNR 241457
MTR2WX
METAR K2WX 241456Z AUTO 27023KT 09/M01 A2977 RMK AO1 PK WND
28032/1402 SLP089 T00891006 50007





000
SAUS43 KUNR 241457
MTRD07
METAR KD07 241456Z AUTO 29024G29KT 11/M02 A2982 RMK AO1 PK WND
30031/1435 SLP106 T01061022 51007





000
SAUS43 KUNR 241357
MTRD07
METAR KD07 241356Z AUTO 29015KT 08/M03 A2982 RMK AO1 SLP107
T00831033





000
SAUS43 KUNR 241357
MTR2WX
METAR K2WX 241356Z AUTO 28025G31KT 07/M01 A2978 RMK AO1 PK WND
29034/1321 SLP092 T00721011





000
SAUS43 KUNR 241257
MTR2WX
METAR K2WX 241256Z AUTO 28016KT 06/M02 A2976 RMK AO1 SLP085
T00561017





000
SAUS43 KUNR 241257
MTRD07
METAR KD07 241256Z AUTO 28013KT 06/M04 A2981 RMK AO1 SLP106
T00561044





000
SAUS43 KUNR 241157
MTRD07
METAR KD07 241156Z AUTO 28012KT 03/M04 A2979 RMK AO1 SLP099
T00331044 10072 20028 51002





000
SAUS43 KUNR 241157
MTR2WX
METAR K2WX 241156Z AUTO 27010KT 01/M06 A2975 RMK AO1 SLP085
T00061056 10033 21006 53001





000
SAUS43 KUNR 241057
MTR2WX
METAR K2WX 241056Z AUTO 27007KT 01/M06 A2975 RMK AO1 SLP084
T00061056





000
SAUS43 KUNR 241057
MTRD07
METAR KD07 241056Z AUTO 28016KT 04/M03 A2979 RMK AO1 SLP099
T00391033





000
SAUS43 KUNR 240957
MTRD07
METAR KD07 240956Z AUTO 28011KT 04/M02 A2979 RMK AO1 SLP099
T00391022





000
SAUS43 KUNR 240957
MTR2WX
METAR K2WX 240956Z AUTO 26011KT 01/M05 A2975 RMK AO1 SLP086
T00061050





000
SAUS43 KUNR 240857
MTRD07
METAR KD07 240856Z AUTO 28012KT 07/M02 A2979 RMK AO1 SLP095
T00671017 51006





000
SAUS43 KUNR 240857
MTR2WX
METAR K2WX 240856Z AUTO 27009KT 02/M04 A2975 RMK AO1 SLP083
T00221039 51007





000
SAUS43 KUNR 240758
MTR2WX
METAR K2WX 240756Z AUTO 27011KT 00/M05 A2975 RMK AO1 SLP089
T00001050





000
SAUS43 KUNR 240757
MTRD07
METAR KD07 240756Z AUTO 27010KT 07/M02 A2979 RMK AO1 SLP091
T00671017





000
SAUS43 KUNR 240658
MTR2WX
METAR K2WX 240656Z AUTO 28009KT 02/M04 A2973 RMK AO1 SLP080
T00221039 401500022





000
SAUS43 KUNR 240657
MTRD07
METAR KD07 240656Z AUTO 28009KT 07/M01 A2978 RMK AO1 SLP088
T00721006 401940061





000
SAUS43 KUNR 240558
MTR2WX
METAR K2WX 240556Z AUTO 27009KT 03/M04 A2973 RMK AO1 SLP076
T00331039 10122 20022 53016





000
SAUS43 KUNR 240557
MTRD07
METAR KD07 240556Z AUTO 28007KT 07/01 A2977 RMK AO1 SLP087 T00670006
10144 20061 51014





000
SAUS43 KUNR 240457
MTR2WX
METAR K2WX 240456Z AUTO 27011KT 05/M03 A2970 RMK AO1 SLP065
T00501033





000
SAUS43 KUNR 240457
MTRD07
METAR KD07 240456Z AUTO 28007KT 07/01 A2977 RMK AO1 SLP088 T00670011





000
SAUS43 KUNR 240357
MTRD07
METAR KD07 240356Z AUTO 29008KT 07/01 A2975 RMK AO1 SLP080 T00670011





000
SAUS43 KUNR 240357
MTR2WX
METAR K2WX 240356Z AUTO 29010KT 07/M03 A2969 RMK AO1 SLP059
T00671028





000
SAUS43 KUNR 240258
MTR2WX
METAR K2WX 240256Z AUTO 29010KT 08/M02 A2967 RMK AO1 SLP051
T00781022 53011





000
SAUS43 KUNR 240257
MTRD07
METAR KD07 240256Z AUTO 33010KT 08/01 A2973 RMK AO1 SLP074 T00830011
51020





000
SAUS43 KUNR 240157
MTRD07
METAR KD07 240156Z AUTO 34008KT 09/02 A2971 RMK AO1 SLP068 T00940017





000
SAUS43 KUNR 240157
MTR2WX
METAR K2WX 240156Z AUTO 30010KT 09/M02 A2965 RMK AO1 PK WND
29028/0100 SLP041 T00891017





000
SAUS43 KUNR 240057
MTR2WX
METAR K2WX 240056Z AUTO 29023KT 11/M02 A2964 RMK AO1 PK WND
29035/0013 SLP035 T01111017





000
SAUS43 KUNR 240057
MTRD07
METAR KD07 240056Z AUTO 33018KT 11/02 A2969 RMK AO1 PK WND
32026/0018 SLP057 T01110017





000
SAUS43 KUNR 232357
MTR2WX
METAR K2WX 232356Z AUTO 28022G29KT 13/00 A2964 RMK AO1 PK WND
29029/2312 SLP031 T01280000 10128 20100 51016





000
SAUS43 KUNR 232357
MTRD07
METAR KD07 232356Z AUTO 32019G23KT 14/03 A2966 RMK AO1 PK WND
31027/2257 SLP046 T01440033 10194 20122 51019





000
SAUS43 KUNR 232257
MTR2WX
METAR K2WX 232256Z AUTO 29024G31KT 12/00 A2962 RMK AO1 PK WND
29031/2159 SLP025 T01220000





000
SAUS43 KUNR 232257
MTRD07
METAR KD07 232256Z AUTO 31019G26KT 12/03 A2965 RMK AO1 PK WND
33029/2217 SLP044 T01220033





000
SAUS43 KUNR 232157
MTR2WX
METAR K2WX 232156Z AUTO 29020G31KT 11/01 A2961 RMK AO1 PK WND
31032/2058 SLP023 T01110011





000
SAUS43 KUNR 232157
MTRD07
METAR KD07 232156Z AUTO 31022G31KT 13/04 A2963 RMK AO1 PK WND
32032/2101 SLP032 T01330044





000
SAUS43 KUNR 232057
MTR2WX
METAR K2WX 232056Z AUTO 30021G30KT 12/02 A2959 RMK AO1 PK WND
30040/2012 SLP014 T01170017 51027





000
SAUS43 KUNR 232057
MTRD07
METAR KD07 232056Z AUTO 31026G34KT 13/05 A2960 RMK AO1 PK WND
31036/2032 PRESRR SLP023 T01330050 53029





000
SAUS43 KUNR 231957
MTRD07
METAR KD07 231956Z AUTO 30020G28KT 17/07 A2956 RMK AO1 PK WND
30028/1956 WSHFT 1905 SLP004 T01670067





000
SAUS43 KUNR 231957
MTR2WX
METAR K2WX 231956Z AUTO 30030G38KT 10/03 A2956 RMK AO1 PK WND
31040/1902 SLP012 T01000028





000
SAUS43 KUNR 231926
MTRD07
SPECI KD07 231925Z AUTO 31018G26KT 18/08 A2952 RMK AO1 PK WND
30026/1919 WSHFT 1905 PRESRR T01780078





000
SAUS43 KUNR 231857
MTR2WX
METAR K2WX 231856Z AUTO 30032G38KT 11/03 A2952 RMK AO1 PK WND
30038/1856 SLP996 T01110033





000
SAUS43 KUNR 231857
MTRD07
METAR KD07 231856Z AUTO VRB03KT 16/06 A2948 RMK AO1 PRESFR SLP976
T01610061





000
SAUS43 KUNR 231757
MTRD07
METAR KD07 231756Z AUTO 19008KT 14/06 A2951 RMK AO1 PK WND
14027/1704 SLP990 T01390061 10139 20106 53013 $





000
SAUS43 KUNR 231757
MTR2WX
METAR K2WX 231756Z AUTO 31022G31KT 11/05 A2950 RMK AO1 PK WND
30031/1749 SLP987 T01060050 10150 20106 53026





000
SAUS43 KUNR 231658
MTR2WX
METAR K2WX 231656Z AUTO 29024G28KT 12/06 A2947 RMK AO1 PK WND
29028/1655 PRESRR SLP974 T01170056





000
SAUS43 KUNR 231657
MTRD07
METAR KD07 231656Z AUTO 15020G28KT 12/04 A2947 RMK AO1 PK WND
15028/1654 SLP978 T01220044 $





000
SAUS43 KUNR 231558
MTRD07
METAR KD07 231556Z AUTO 15019KT 12/03 A2948 RMK AO1 PK WND
12028/1512 SLP982 T01170028 $





000
SAUS43 KUNR 231558
MTR2WX
METAR K2WX 231556Z AUTO 29021KT 12/06 A2942 RMK AO1 PK WND
28031/1548 SLP957 T01170061





000
SAUS43 KUNR 231503
MTR2WX
METAR K2WX 231456Z AUTO 26018KT 12/07 A2941 RMK AO1 WSHFT 1423
SLP954 T01220067 53027





000
SAUS43 KUNR 231450
MTR2WX
SPECI K2WX 231443Z AUTO 29020KT 13/07 A2939 RMK AO1 WSHFT 1423
T01280067





000
SAUS43 KUNR 231439
MTR2WX
SPECI K2WX 231432Z AUTO 28021G24KT 13/06 A2939 RMK AO1 WSHFT 1412
T01330061





000
SAUS43 KUNR 231403
MTR2WX
METAR K2WX 231356Z AUTO 20012KT 13/06 A2936 RMK AO1 SLP933 T01280056





000
SAUS43 KUNR 231303
MTR2WX
METAR K2WX 231256Z AUTO 16012KT 13/06 A2935 RMK AO1 SLP929 T01280056





000
SAUS43 KUNR 231203
MTR2WX
METAR K2WX 231156Z AUTO 15015KT 14/06 A2933 RMK AO1 SLP916 T01390056
10144 20106 56004





000
SAUS43 KUNR 231103
MTR2WX
METAR K2WX 231056Z AUTO 15015KT 14/06 A2933 RMK AO1 PK WND
15027/1018 SLP914 T01440061





000
SAUS43 KUNR 231003
MTR2WX
METAR K2WX 230956Z AUTO 15020KT 14/07 A2931 RMK AO1 PK WND
15028/0939 SLP909 T01440072





000
SAUS43 KUNR 230903
MTR2WX
METAR K2WX 230856Z AUTO 13013KT 14/07 A2934 RMK AO1 SLP919 T01390067
57029





000
SAUS43 KUNR 230803
MTR2WX
METAR K2WX 230756Z AUTO 10012KT 11/04 A2938 RMK AO1 SLP936 T01110039





000
SAUS43 KUNR 230703
MTR2WX
METAR K2WX 230656Z AUTO 08014KT 11/02 A2940 RMK AO1 SLP946 T01110022
402170033





000
SAUS43 KUNR 230603
MTR2WX
METAR K2WX 230556Z AUTO 07011KT 12/02 A2944 RMK AO1 SLP958 T01220017
10200 20122 56023





000
SAUS43 KUNR 230503
MTR2WX
METAR K2WX 230456Z AUTO 11014KT 13/01 A2945 RMK AO1 SLP962 T01330011





000
SAUS43 KUNR 230403
MTR2WX
METAR K2WX 230356Z AUTO 10015KT 14/01 A2948 RMK AO1 SLP974 T01390006





000
SAUS43 KUNR 230303
MTR2WX
METAR K2WX 230256Z AUTO 09018G25KT 14/01 A2951 RMK AO1 SLP988
T01390006 58017





000
SAUS43 KUNR 230203
MTR2WX
METAR K2WX 230156Z AUTO 09014KT 15/01 A2954 RMK AO1 SLP000 T01500011





000
SAUS43 KUNR 230103
MTR2WX
METAR K2WX 230056Z AUTO 09016KT 17/02 A2955 RMK AO1 PK WND
11027/2357 SLP007 T01670017





000
SAUS43 KUNR 230004 COR
MTR2WX
METAR K2WX 222356Z AUTO 11023G29KT 20/02 A2956 RMK AO1 PK WND
11030/2322 SLP009 T02000017 10217 20178 56024





000
SAUS43 KUNR 222303
MTR2WX
METAR K2WX 222256Z AUTO 11020G30KT 21/02 A2958 RMK AO1 PK WND
12031/2218 SLP011 T02060022





000
SAUS43 KUNR 222203
MTR2WX
METAR K2WX 222156Z AUTO 12020G26KT 21/02 A2961 RMK AO1 PK WND
11027/2106 SLP021 T02110017





000
SAUS43 KUNR 222103
MTR2WX
METAR K2WX 222056Z AUTO 13021G26KT 21/01 A2964 RMK AO1 PK WND
12027/2027 SLP030 T02110011 56029





000
SAUS43 KUNR 222003
MTR2WX
METAR K2WX 221956Z AUTO 11019G25KT 20/01 A2967 RMK AO1 PK WND
13029/1928 SLP039 T02000011





000
SAUS43 KUNR 221903
MTR2WX
METAR K2WX 221856Z AUTO 11018G24KT 19/01 A2970 RMK AO1 SLP052
T01890011





000
SAUS43 KUNR 221857
MTRD07
METAR KD07 221856Z AUTO 13018G28KT 21/01 A2978 RMK AO1 PK WND
13030/1817 SLP084 T02060006





000
SAUS43 KUNR 221803
MTR2WX
METAR K2WX 221756Z AUTO 12018G22KT 18/01 A2974 RMK AO1 SLP065
T01780006 10178 20033 57019





000
SAUS43 KUNR 221757
MTRD07
METAR KD07 221756Z AUTO 15020G26KT 19/01 A2981 RMK AO1 PK WND
15028/1702 SLP096 T01890006 10189 20061 58022





000
SAUS43 KUNR 221703
MTR2WX
METAR K2WX 221656Z AUTO 10013KT 16/00 A2976 RMK AO1 SLP075 T01610000





000
SAUS43 KUNR 221657
MTRD07
METAR KD07 221656Z AUTO 14018G27KT 17/M01 A2984 RMK AO1 PK WND
12030/1619 SLP106 T01721006





000
SAUS43 KUNR 221603
MTR2WX
METAR K2WX 221556Z AUTO 12014KT 16/M01 A2977 RMK AO1 SLP076
T01561006





000
SAUS43 KUNR 221557
MTRD07
METAR KD07 221556Z AUTO 14024G30KT 14/M01 A2987 RMK AO1 PK WND
15030/1554 SLP117 T01441006





000
SAUS43 KUNR 221503
MTR2WX
METAR K2WX 221456Z AUTO 11009KT 11/00 A2980 RMK AO1 SLP089 T01110000
58019





000
SAUS43 KUNR 221457
MTRD07
METAR KD07 221456Z AUTO 14019G31KT 12/00 A2988 RMK AO1 PK WND
15031/1450 SLP124 T01170000 58021





000
SAUS43 KUNR 221403
MTR2WX
METAR K2WX 221356Z AUTO 07007KT 08/00 A2982 RMK AO1 SLP098 T00780000





000
SAUS43 KUNR 221357
MTRD07
METAR KD07 221356Z AUTO 14020KT 09/M01 A2991 RMK AO1 PK WND
14027/1321 SLP132 T00891006





000
SAUS43 KUNR 221303
MTR2WX
METAR K2WX 221256Z AUTO 07009KT 04/M01 A2984 RMK AO1 SLP104
T00441006





000
SAUS43 KUNR 221257
MTRD07
METAR KD07 221256Z AUTO 14018G26KT 08/M01 A2993 RMK AO1 PK WND
14026/1247 SLP139 T00781011





000
SAUS43 KUNR 221203
MTR2WX
METAR K2WX 221156Z AUTO 05007KT 03/M02 A2986 RMK AO1 SLP111
T00331017 10083 20033 56023





000
SAUS43 KUNR 221157
MTRD07
METAR KD07 221156Z AUTO 14018KT 06/M01 A2995 RMK AO1 PK WND
15029/1106 SLP145 T00611011 10078 20056 58026





000
SAUS43 KUNR 221103
MTR2WX
METAR K2WX 221056Z AUTO 12010KT 07/M02 A2988 RMK AO1 SLP115
T00721017





000
SAUS43 KUNR 221057
MTRD07
METAR KD07 221056Z AUTO 14013KT 07/M01 A2998 RMK AO1 SLP154
T00671011





000
SAUS43 KUNR 221003
MTR2WX
METAR K2WX 220956Z AUTO 13012KT 07/M02 A2990 RMK AO1 SLP121
T00671017





000
SAUS43 KUNR 220957
MTRD07
METAR KD07 220956Z AUTO 15014KT 06/M01 A3001 RMK AO1 SLP164
T00611011





000
SAUS43 KUNR 220903
MTR2WX
METAR K2WX 220856Z AUTO 13010KT 07/M01 A2993 RMK AO1 SLP131
T00721011 58023





000
SAUS43 KUNR 220857
MTRD07
METAR KD07 220856Z AUTO 15011KT 06/M01 A3003 RMK AO1 SLP173
T00561011 58018





000
SAUS43 KUNR 220803
MTR2WX
METAR K2WX 220756Z AUTO 13013KT 08/M01 A2996 RMK AO1 SLP140
T00831011





000
SAUS43 KUNR 220757
MTRD07
METAR KD07 220756Z AUTO 15012KT 06/M01 A3006 RMK AO1 SLP183
T00611011





000
SAUS43 KUNR 220703
MTR2WX
METAR K2WX 220656Z AUTO 13013KT 08/M01 A2998 RMK AO1 SLP149
T00831006 402060022





000
SAUS43 KUNR 220657
MTRD07
METAR KD07 220656Z AUTO 15013KT 07/M01 A3008 RMK AO1 SLP188
T00721006 402060033





000
SAUS43 KUNR 220603
MTR2WX
METAR K2WX 220556Z AUTO 13013KT 08/M01 A3000 RMK AO1 SLP158
T00831011 10194 20083 58009





000
SAUS43 KUNR 220557
MTRD07
METAR KD07 220556Z AUTO 14013KT 08/M01 A3009 RMK AO1 SLP192
T00781006 10200 20078 58006





000
SAUS43 KUNR 220503
MTR2WX
METAR K2WX 220456Z AUTO 15003KT 09/M04 A3001 RMK AO1 SLP162
T00891039





000
SAUS43 KUNR 220457
MTRD07
METAR KD07 220456Z AUTO 13014KT 09/M01 A3010 RMK AO1 SLP196
T00891006





000
SAUS43 KUNR 220403
MTR2WX
METAR K2WX 220356Z AUTO 11009KT 12/M05 A3003 RMK AO1 SLP167
T01171050





000
SAUS43 KUNR 220357
MTRD07
METAR KD07 220356Z AUTO 13015KT 09/00 A3011 RMK AO1 SLP201 T00940000





000
SAUS43 KUNR 220303
MTR2WX
METAR K2WX 220256Z AUTO 08010KT 12/M04 A3003 RMK AO1 SLP169
T01221039 55004





000
SAUS43 KUNR 220257
MTRD07
METAR KD07 220256Z AUTO 12015KT 11/01 A3011 RMK AO1 SLP201 T01110011
53002





000
SAUS43 KUNR 220203
MTR2WX
METAR K2WX 220156Z AUTO 05008KT 14/M04 A3003 RMK AO1 SLP170
T01391039





000
SAUS43 KUNR 220157
MTRD07
METAR KD07 220156Z AUTO 11007KT 16/M03 A3010 RMK AO1 SLP195
T01611033





000
SAUS43 KUNR 220103
MTR2WX
METAR K2WX 220056Z AUTO 05003KT 18/M06 A3004 RMK AO1 SLP174
T01831061





000
SAUS43 KUNR 220057
MTRD07
METAR KD07 220056Z AUTO 07005KT 17/M01 A3010 RMK AO1 SLP199
T01721011





000
SAUS43 KUNR 220003
MTR2WX
METAR K2WX 212356Z AUTO 35007KT 19/M07 A3005 RMK AO1 SLP176
T01941072 10206 20172 56012





000
SAUS43 KUNR 212357
MTRD07
METAR KD07 212356Z AUTO 01006KT 19/M04 A3010 RMK AO1 SLP200
T01941044 10206 20172 56015





    US Dept of Commerce
    National Oceanic and Atmospheric Administration
    National Weather Service
    1325 East West Highway
    Silver Spring, MD 20910
    Page Author: NWS Internet Services Team
Disclaimer
Information Quality
Credits
Glossary
Privacy Policy
Freedom of Information Act (FOIA)
About Us
Career Opportunities